Time,TemperatureF,DewpointF,PressureIn,WindDirection,WindDirectionDegrees,WindSpeedMPH,WindSpeedGustMPH,Humidity,HourlyPrecipIn,Conditions,Clouds,dailyrainin,SoftwareType,DateUTC
2013-03-24 08:18:00,27.7,2.3,29.80,NW,315,0.0,0.0,33,0.00,,,0.00,VWS V14.01,2013-03-24 12:18:00,
2013-03-24 08:19:00,27.9,2.5,29.80,NW,311,0.0,0.0,33,0.00,,,0.00,VWS V14.01,2013-03-24 12:19:00,
2013-03-24 08:23:00,28.2,2.8,29.80,WSW,250,2.7,2.7,33,0.00,,,0.00,VWS V14.01,2013-03-24 12:23:00,
2013-03-24 08:24:00,28.4,3.0,29.80,WSW,250,2.7,2.7,33,0.00,,,0.00,VWS V14.01,2013-03-24 12:24:00,
2013-03-24 08:25:00,28.6,2.5,29.80,WSW,249,0.0,0.0,32,0.00,,,0.00,VWS V14.01,2013-03-24 12:25:00,
2013-03-24 08:29:00,28.9,2.8,29.80,WSW,249,0.0,0.0,32,0.00,,,0.00,VWS V14.01,2013-03-24 12:29:00,
2013-03-24 08:30:00,29.1,3.0,29.80,WSW,249,0.0,0.0,32,0.00,,,0.00,VWS V14.01,2013-03-24 12:30:00,
2013-03-24 08:32:00,29.5,3.3,29.80,WSW,249,0.0,0.0,32,0.00,,,0.00,VWS V14.01,2013-03-24 12:32:00,
2013-03-24 08:35:00,29.7,3.4,29.80,NW,316,2.7,2.7,32,0.00,,,0.00,VWS V14.01,2013-03-24 12:35:00,
2013-03-24 08:36:00,30.0,3.8,29.80,West,271,2.2,2.7,32,0.00,,,0.00,VWS V14.01,2013-03-24 12:36:00,
2013-03-24 08:38:00,30.2,3.9,29.80,WSW,249,2.2,2.7,32,0.00,,,0.00,VWS V14.01,2013-03-24 12:38:00,
2013-03-24 08:40:00,30.4,3.4,29.80,WNW,286,0.0,0.0,31,0.00,,,0.00,VWS V14.01,2013-03-24 12:40:00,
2013-03-24 08:42:00,30.6,3.5,29.80,WNW,286,0.0,0.0,31,0.00,,,0.00,VWS V14.01,2013-03-24 12:42:00,
2013-03-24 08:43:00,30.7,3.7,29.80,WNW,286,0.0,0.0,31,0.00,,,0.00,VWS V14.01,2013-03-24 12:43:00,
2013-03-24 08:44:00,30.9,3.8,29.80,WNW,286,0.0,0.0,31,0.00,,,0.00,VWS V14.01,2013-03-24 12:44:00,
2013-03-24 08:46:00,31.3,4.2,29.80,WNW,286,0.0,0.0,31,0.00,,,0.00,VWS V14.01,2013-03-24 12:46:00,
2013-03-24 08:47:00,31.3,4.2,29.80,WNW,286,0.0,0.0,31,0.00,,,0.00,VWS V14.01,2013-03-24 12:47:00,
2013-03-24 08:48:00,31.5,4.3,29.80,WNW,296,0.0,0.0,31,0.00,,,0.00,VWS V14.01,2013-03-24 12:48:00,
2013-03-24 08:49:00,31.6,4.5,29.80,WNW,296,0.0,0.0,31,0.00,,,0.00,VWS V14.01,2013-03-24 12:49:00,
2013-03-24 08:53:00,32.4,5.1,29.80,WNW,291,0.0,0.0,31,0.00,,,0.00,VWS V14.01,2013-03-24 12:53:00,
2013-03-24 08:54:00,32.5,5.3,29.80,WNW,291,0.0,0.0,31,0.00,,,0.00,VWS V14.01,2013-03-24 12:54:00,
2013-03-24 08:55:00,32.7,5.4,29.80,West,263,0.0,0.0,31,0.00,,,0.00,VWS V14.01,2013-03-24 12:55:00,
2013-03-24 08:58:00,33.1,5.8,29.80,WSW,256,0.0,0.0,31,0.00,,,0.00,VWS V14.01,2013-03-24 12:58:00,
2013-03-24 09:00:00,33.3,5.9,29.80,West,262,0.0,0.0,31,0.00,,,0.00,VWS V14.01,2013-03-24 13:00:00,
2013-03-24 09:01:00,33.6,5.5,29.80,WNW,292,0.0,0.0,30,0.00,,,0.00,VWS V14.01,2013-03-24 13:01:00,
2013-03-24 09:02:00,33.6,5.5,29.80,WNW,292,0.0,0.0,30,0.00,,,0.00,VWS V14.01,2013-03-24 13:02:00,
2013-03-24 09:05:00,33.8,5.7,29.80,WNW,292,0.0,0.0,30,0.00,,,0.00,VWS V14.01,2013-03-24 13:05:00,
2013-03-24 09:06:00,34.0,5.8,29.80,WNW,292,0.0,0.0,30,0.00,,,0.00,VWS V14.01,2013-03-24 13:06:00,
2013-03-24 09:07:00,34.2,6.0,29.80,WNW,292,0.0,0.0,30,0.00,,,0.00,VWS V14.01,2013-03-24 13:07:00,
2013-03-24 09:09:00,34.3,6.1,29.80,WNW,301,0.0,0.0,30,0.00,,,0.00,VWS V14.01,2013-03-24 13:09:00,
2013-03-24 09:10:00,34.5,6.3,29.80,WNW,300,0.0,0.0,30,0.00,,,0.00,VWS V14.01,2013-03-24 13:10:00,
2013-03-24 09:12:00,34.7,6.4,29.80,North,1,3.6,3.6,30,0.00,,,0.00,VWS V14.01,2013-03-24 13:12:00,
2013-03-24 09:13:00,34.7,6.4,29.80,West,268,3.1,3.6,30,0.00,,,0.00,VWS V14.01,2013-03-24 13:13:00,
2013-03-24 09:15:00,34.9,6.6,29.80,NW,324,0.0,2.2,30,0.00,,,0.00,VWS V14.01,2013-03-24 13:15:00,
2013-03-24 09:16:00,35.1,6.8,29.80,WSW,248,4.0,4.0,30,0.00,,,0.00,VWS V14.01,2013-03-24 13:16:00,
2013-03-24 09:17:00,35.1,6.8,29.80,WNW,294,2.7,4.0,30,0.00,,,0.00,VWS V14.01,2013-03-24 13:17:00,
2013-03-24 09:19:00,35.4,7.1,29.80,NNW,327,0.0,0.0,30,0.00,,,0.00,VWS V14.01,2013-03-24 13:19:00,
2013-03-24 09:20:00,35.6,6.5,29.80,NNW,327,0.0,0.0,29,0.00,,,0.00,VWS V14.01,2013-03-24 13:20:00,
2013-03-24 09:21:00,35.6,6.5,29.80,NW,319,0.0,3.6,29,0.00,,,0.00,VWS V14.01,2013-03-24 13:21:00,
2013-03-24 09:23:00,35.8,5.1,29.77,WSW,251,2.7,2.7,27,0.00,,,0.00,VWS V14.01,2013-03-24 13:23:00,
2013-03-24 09:24:00,36.0,5.2,29.77,NW,313,0.0,3.1,27,0.00,,,0.00,VWS V14.01,2013-03-24 13:24:00,
2013-03-24 09:25:00,36.1,5.4,29.77,NW,317,0.0,0.0,27,0.00,,,0.00,VWS V14.01,2013-03-24 13:25:00,
2013-03-24 09:27:00,36.3,5.6,29.77,NNW,329,0.0,0.0,27,0.00,,,0.00,VWS V14.01,2013-03-24 13:27:00,
2013-03-24 09:28:00,36.5,5.7,29.77,NNW,337,2.2,5.4,27,0.00,,,0.00,VWS V14.01,2013-03-24 13:28:00,
2013-03-24 09:29:00,36.5,5.7,29.77,NNW,338,2.2,2.7,27,0.00,,,0.00,VWS V14.01,2013-03-24 13:29:00,
2013-03-24 09:32:00,36.9,3.5,29.77,ENE,76,3.6,3.6,24,0.00,,,0.00,VWS V14.01,2013-03-24 13:32:00,
2013-03-24 09:33:00,37.0,3.6,29.77,WNW,282,3.1,5.8,24,0.00,,,0.00,VWS V14.01,2013-03-24 13:33:00,
2013-03-24 09:34:00,37.0,3.6,29.77,WNW,294,3.6,5.8,24,0.00,,,0.00,VWS V14.01,2013-03-24 13:34:00,
2013-03-24 09:38:00,37.6,4.1,29.77,WNW,300,0.0,0.0,24,0.00,,,0.00,VWS V14.01,2013-03-24 13:38:00,
2013-03-24 09:39:00,37.6,1.2,29.77,NE,43,3.1,3.6,21,0.00,,,0.00,VWS V14.01,2013-03-24 13:39:00,
2013-03-24 09:40:00,37.6,1.2,29.77,North,0,0.0,3.1,21,0.00,,,0.00,VWS V14.01,2013-03-24 13:40:00,
2013-03-24 09:41:00,37.8,1.4,29.77,NE,47,3.6,4.0,21,0.00,,,0.00,VWS V14.01,2013-03-24 13:41:00,
2013-03-24 09:45:00,38.1,1.6,29.77,North,9,0.0,2.2,21,0.00,,,0.00,VWS V14.01,2013-03-24 13:45:00,
2013-03-24 09:46:00,38.1,1.6,29.77,North,357,2.2,3.6,21,0.00,,,0.00,VWS V14.01,2013-03-24 13:46:00,
2013-03-24 09:47:00,38.1,1.6,29.77,North,357,0.0,4.9,21,0.00,,,0.00,VWS V14.01,2013-03-24 13:47:00,
2013-03-24 09:51:00,38.5,2.0,29.77,North,353,2.2,3.1,21,0.00,,,0.00,VWS V14.01,2013-03-24 13:51:00,
2013-03-24 09:55:00,39.0,0.3,29.77,NNE,18,0.0,4.0,19,0.00,,,0.00,VWS V14.01,2013-03-24 13:55:00,
2013-03-24 09:57:00,39.2,-0.7,29.77,NW,314,3.6,5.4,18,0.00,,,0.00,VWS V14.01,2013-03-24 13:57:00,
2013-03-24 09:59:00,39.4,-0.6,29.77,NNE,30,3.1,4.9,18,0.00,,,0.00,VWS V14.01,2013-03-24 13:59:00,
2013-03-24 10:01:00,39.4,-0.6,29.77,North,353,2.7,5.4,18,0.00,,,0.00,VWS V14.01,2013-03-24 14:01:00,
2013-03-24 10:02:00,39.6,-0.4,29.77,NE,46,0.0,4.0,18,0.00,,,0.00,VWS V14.01,2013-03-24 14:02:00,
2013-03-24 10:03:00,39.6,-0.4,29.77,NE,38,2.7,2.7,18,0.00,,,0.00,VWS V14.01,2013-03-24 14:03:00,
2013-03-24 10:04:00,39.6,-0.4,29.77,NE,55,3.1,3.1,18,0.00,,,0.00,VWS V14.01,2013-03-24 14:04:00,
2013-03-24 10:06:00,39.7,-0.3,29.77,SE,140,2.2,3.1,18,0.00,,,0.00,VWS V14.01,2013-03-24 14:06:00,
2013-03-24 10:07:00,39.9,-0.1,29.74,NE,42,0.0,3.1,18,0.00,,,0.00,VWS V14.01,2013-03-24 14:07:00,
2013-03-24 10:08:00,39.9,-0.1,29.74,East,90,3.1,4.0,18,0.00,,,0.00,VWS V14.01,2013-03-24 14:08:00,
2013-03-24 10:10:00,40.3,0.2,29.74,NNW,327,0.0,0.0,18,0.00,,,0.00,VWS V14.01,2013-03-24 14:10:00,
2013-03-24 10:12:00,40.6,0.5,29.74,NW,304,2.2,3.6,18,0.00,,,0.00,VWS V14.01,2013-03-24 14:12:00,
2013-03-24 10:13:00,40.8,0.6,29.74,NE,40,2.2,3.1,18,0.00,,,0.00,VWS V14.01,2013-03-24 14:13:00,
2013-03-24 10:18:00,41.0,0.8,29.74,NNE,28,8.7,8.7,18,0.00,,,0.00,VWS V14.01,2013-03-24 14:18:00,
2013-03-24 10:19:00,41.0,0.8,29.74,WNW,303,6.7,8.7,18,0.00,,,0.00,VWS V14.01,2013-03-24 14:19:00,
2013-03-24 10:23:00,40.8,0.6,29.74,NW,313,4.9,4.9,18,0.00,,,0.00,VWS V14.01,2013-03-24 14:23:00,
2013-03-24 10:24:00,40.8,0.6,29.74,NW,326,5.4,5.4,18,0.00,,,0.00,VWS V14.01,2013-03-24 14:24:00,
2013-03-24 10:26:00,40.8,0.6,29.74,East,80,3.6,4.0,18,0.00,,,0.00,VWS V14.01,2013-03-24 14:26:00,
2013-03-24 10:29:00,41.0,0.8,29.74,ENE,74,4.0,5.4,18,0.00,,,0.00,VWS V14.01,2013-03-24 14:29:00,
2013-03-24 10:32:00,41.2,0.9,29.74,NE,42,2.7,4.9,18,0.00,,,0.00,VWS V14.01,2013-03-24 14:32:00,
2013-03-24 10:34:00,41.2,0.9,29.74,NE,45,5.4,5.4,18,0.00,,,0.00,VWS V14.01,2013-03-24 14:34:00,
2013-03-24 10:35:00,41.2,0.9,29.74,NE,35,3.6,5.4,18,0.00,,,0.00,VWS V14.01,2013-03-24 14:35:00,
2013-03-24 10:37:00,41.4,1.0,29.74,NE,41,0.0,3.6,18,0.00,,,0.00,VWS V14.01,2013-03-24 14:37:00,
2013-03-24 10:40:00,41.5,1.2,29.74,ENE,74,3.6,8.3,18,0.00,,,0.00,VWS V14.01,2013-03-24 14:40:00,
2013-03-24 10:41:00,41.5,1.2,29.74,North,9,2.2,2.2,18,0.00,,,0.00,VWS V14.01,2013-03-24 14:41:00,
2013-03-24 10:42:00,41.5,1.2,29.74,East,100,3.1,3.1,18,0.00,,,0.00,VWS V14.01,2013-03-24 14:42:00,
2013-03-24 10:43:00,41.5,1.2,29.74,ENE,66,2.7,3.1,18,0.00,,,0.00,VWS V14.01,2013-03-24 14:43:00,
2013-03-24 10:46:00,41.7,1.4,29.74,ENE,64,0.0,0.0,18,0.00,,,0.00,VWS V14.01,2013-03-24 14:46:00,
2013-03-24 10:47:00,41.7,1.4,29.74,NNW,342,5.8,5.8,18,0.00,,,0.00,VWS V14.01,2013-03-24 14:47:00,
2013-03-24 10:49:00,41.7,1.4,29.74,NNW,327,4.9,5.8,18,0.00,,,0.00,VWS V14.01,2013-03-24 14:49:00,
2013-03-24 10:50:00,41.5,1.2,29.74,North,2,4.5,6.3,18,0.00,,,0.00,VWS V14.01,2013-03-24 14:50:00,
2013-03-24 10:52:00,41.4,1.0,29.71,NNE,33,2.2,2.7,18,0.00,,,0.00,VWS V14.01,2013-03-24 14:52:00,
2013-03-24 10:54:00,41.4,1.0,29.71,ENE,64,2.2,4.9,18,0.00,,,0.00,VWS V14.01,2013-03-24 14:54:00,
2013-03-24 10:55:00,41.5,1.2,29.71,NNE,20,3.6,3.6,18,0.00,,,0.00,VWS V14.01,2013-03-24 14:55:00,
2013-03-24 10:57:00,41.5,1.2,29.71,NNE,32,3.1,5.8,18,0.00,,,0.00,VWS V14.01,2013-03-24 14:57:00,
2013-03-24 11:00:00,41.9,1.5,29.71,ENE,57,2.2,2.2,18,0.00,,,0.00,VWS V14.01,2013-03-24 15:00:00,
2013-03-24 11:01:00,41.9,1.5,29.71,NE,51,2.7,3.1,18,0.00,,,0.00,VWS V14.01,2013-03-24 15:01:00,
2013-03-24 11:02:00,42.1,1.6,29.71,NE,49,0.0,2.7,18,0.00,,,0.00,VWS V14.01,2013-03-24 15:02:00,
2013-03-24 11:06:00,42.3,1.8,29.71,WNW,294,5.4,5.4,18,0.00,,,0.00,VWS V14.01,2013-03-24 15:06:00,
2013-03-24 11:07:00,42.3,-0.7,29.71,North,5,4.9,6.3,16,0.00,,,0.00,VWS V14.01,2013-03-24 15:07:00,
2013-03-24 11:08:00,42.3,1.8,29.71,East,81,3.1,3.1,18,0.00,,,0.00,VWS V14.01,2013-03-24 15:08:00,
2013-03-24 11:13:00,42.4,1.9,29.71,NNE,24,3.1,4.0,18,0.00,,,0.00,VWS V14.01,2013-03-24 15:13:00,
2013-03-24 11:14:00,42.4,1.9,29.71,NE,36,3.1,4.0,18,0.00,,,0.00,VWS V14.01,2013-03-24 15:14:00,
2013-03-24 11:16:00,42.6,2.1,29.71,NNE,24,3.6,3.6,18,0.00,,,0.00,VWS V14.01,2013-03-24 15:16:00,
2013-03-24 11:19:00,42.8,2.2,29.71,WNW,294,0.0,0.0,18,0.00,,,0.00,VWS V14.01,2013-03-24 15:19:00,
2013-03-24 11:21:00,42.8,2.2,29.71,NE,43,0.0,0.0,18,0.00,,,0.00,VWS V14.01,2013-03-24 15:21:00,
2013-03-24 11:22:00,42.8,2.2,29.71,NE,55,2.7,4.0,18,0.00,,,0.00,VWS V14.01,2013-03-24 15:22:00,
2013-03-24 11:25:00,43.0,2.4,29.71,ENE,64,2.7,4.0,18,0.00,,,0.00,VWS V14.01,2013-03-24 15:25:00,
2013-03-24 11:27:00,43.2,2.5,29.71,NNE,16,0.0,2.7,18,0.00,,,0.00,VWS V14.01,2013-03-24 15:27:00,
2013-03-24 11:30:00,43.2,2.5,29.71,NNE,33,2.7,3.1,18,0.00,,,0.00,VWS V14.01,2013-03-24 15:30:00,
2013-03-24 11:33:00,43.2,-1.4,29.71,NW,310,4.0,4.0,15,0.00,,,0.00,VWS V14.01,2013-03-24 15:33:00,
2013-03-24 11:35:00,43.3,-1.2,29.71,NW,325,4.0,5.8,15,0.00,,,0.00,VWS V14.01,2013-03-24 15:35:00,
2013-03-24 11:36:00,43.3,-1.2,29.71,West,280,4.9,5.8,15,0.00,,,0.00,VWS V14.01,2013-03-24 15:36:00,
2013-03-24 11:38:00,43.2,-1.4,29.68,NNE,22,3.1,3.1,15,0.00,,,0.00,VWS V14.01,2013-03-24 15:38:00,
2013-03-24 11:41:00,43.2,-1.4,29.68,WSW,244,3.1,3.6,15,0.00,,,0.00,VWS V14.01,2013-03-24 15:41:00,
2013-03-24 11:43:00,43.0,-1.5,29.68,NW,320,2.7,3.6,15,0.00,,,0.00,VWS V14.01,2013-03-24 15:43:00,
2013-03-24 11:44:00,43.0,-1.5,29.68,NNW,346,3.6,4.0,15,0.00,,,0.00,VWS V14.01,2013-03-24 15:44:00,
2013-03-24 11:45:00,43.0,-1.5,29.68,North,353,0.0,4.0,15,0.00,,,0.00,VWS V14.01,2013-03-24 15:45:00,
2013-03-24 11:48:00,43.0,-1.5,29.68,SW,225,3.1,3.6,15,0.00,,,0.00,VWS V14.01,2013-03-24 15:48:00,
2013-03-24 11:49:00,43.0,-1.5,29.68,South,175,4.0,4.9,15,0.00,,,0.00,VWS V14.01,2013-03-24 15:49:00,
2013-03-24 11:50:00,43.0,-1.5,29.68,East,89,0.0,4.9,15,0.00,,,0.00,VWS V14.01,2013-03-24 15:50:00,
2013-03-24 11:52:00,43.0,-1.5,29.68,NNW,345,3.6,3.6,15,0.00,,,0.00,VWS V14.01,2013-03-24 15:52:00,
2013-03-24 11:55:00,43.2,-1.4,29.68,East,90,2.7,4.9,15,0.00,,,0.00,VWS V14.01,2013-03-24 15:55:00,
2013-03-24 11:56:00,43.3,-1.2,29.68,NNW,339,0.0,2.7,15,0.00,,,0.00,VWS V14.01,2013-03-24 15:56:00,
2013-03-24 11:57:00,43.3,-1.2,29.68,ENE,74,3.1,3.6,15,0.00,,,0.00,VWS V14.01,2013-03-24 15:57:00,
2013-03-24 11:58:00,43.5,-1.1,29.68,NNE,31,3.6,3.6,15,0.00,,,0.00,VWS V14.01,2013-03-24 15:58:00,
2013-03-24 12:01:00,43.7,-0.9,29.68,East,81,0.0,0.0,15,0.00,,,0.00,VWS V14.01,2013-03-24 16:01:00,
2013-03-24 12:02:00,43.9,-0.8,29.68,NE,52,0.0,3.1,15,0.00,,,0.00,VWS V14.01,2013-03-24 16:02:00,
2013-03-24 12:03:00,44.1,-0.6,29.68,East,91,0.0,3.1,15,0.00,,,0.00,VWS V14.01,2013-03-24 16:03:00,
2013-03-24 12:05:00,44.2,-0.5,29.68,NNE,20,2.7,3.6,15,0.00,,,0.00,VWS V14.01,2013-03-24 16:05:00,
2013-03-24 12:06:00,44.4,-0.3,29.68,NNE,18,0.0,0.0,15,0.00,,,0.00,VWS V14.01,2013-03-24 16:06:00,
2013-03-24 12:08:00,44.6,-0.2,29.68,SE,131,3.1,3.6,15,0.00,,,0.00,VWS V14.01,2013-03-24 16:08:00,
2013-03-24 12:10:00,44.6,-0.2,29.68,NE,47,3.6,3.6,15,0.00,,,0.00,VWS V14.01,2013-03-24 16:10:00,
2013-03-24 12:12:00,44.8,0.0,29.68,WNW,301,3.6,4.0,15,0.00,,,0.00,VWS V14.01,2013-03-24 16:12:00,
2013-03-24 12:14:00,44.6,-0.2,29.68,NNE,29,2.2,3.6,15,0.00,,,0.00,VWS V14.01,2013-03-24 16:14:00,
2013-03-24 12:15:00,44.6,-0.2,29.68,ENE,65,2.2,3.1,15,0.00,,,0.00,VWS V14.01,2013-03-24 16:15:00,
2013-03-24 12:16:00,44.4,-0.3,29.68,ESE,123,0.0,0.0,15,0.00,,,0.00,VWS V14.01,2013-03-24 16:16:00,
2013-03-24 12:18:00,44.6,-0.2,29.68,East,79,0.0,0.0,15,0.00,,,0.00,VWS V14.01,2013-03-24 16:18:00,
2013-03-24 12:19:00,44.6,-0.2,29.68,ENE,76,2.7,2.7,15,0.00,,,0.00,VWS V14.01,2013-03-24 16:19:00,
2013-03-24 12:21:00,44.6,-0.2,29.68,ESE,114,2.2,2.2,15,0.00,,,0.00,VWS V14.01,2013-03-24 16:21:00,
2013-03-24 12:24:00,44.8,0.0,29.68,NNE,25,2.7,3.1,15,0.00,,,0.00,VWS V14.01,2013-03-24 16:24:00,
2013-03-24 12:27:00,44.6,-0.2,29.68,East,99,3.6,3.6,15,0.00,,,0.00,VWS V14.01,2013-03-24 16:27:00,
2013-03-24 12:28:00,44.6,-0.2,29.68,East,97,0.0,0.0,15,0.00,,,0.00,VWS V14.01,2013-03-24 16:28:00,
2013-03-24 12:31:00,44.4,-0.3,29.68,ESE,117,0.0,2.2,15,0.00,,,0.00,VWS V14.01,2013-03-24 16:31:00,
2013-03-24 12:32:00,44.4,-0.3,29.68,ESE,121,0.0,2.2,15,0.00,,,0.00,VWS V14.01,2013-03-24 16:32:00,
2013-03-24 12:33:00,44.2,-0.5,29.68,ESE,103,0.0,0.0,15,0.00,,,0.00,VWS V14.01,2013-03-24 16:33:00,
2013-03-24 12:34:00,44.2,-0.5,29.68,ESE,110,0.0,0.0,15,0.00,,,0.00,VWS V14.01,2013-03-24 16:34:00,
2013-03-24 12:36:00,44.4,-0.3,29.68,NE,48,2.2,3.1,15,0.00,,,0.00,VWS V14.01,2013-03-24 16:36:00,
2013-03-24 12:38:00,44.6,-0.2,29.68,ESE,116,2.2,3.6,15,0.00,,,0.00,VWS V14.01,2013-03-24 16:38:00,
2013-03-24 12:39:00,44.6,-0.2,29.68,NE,50,3.6,3.6,15,0.00,,,0.00,VWS V14.01,2013-03-24 16:39:00,
2013-03-24 12:42:00,44.8,0.0,29.68,North,10,2.7,2.7,15,0.00,,,0.00,VWS V14.01,2013-03-24 16:42:00,
2013-03-24 12:43:00,45.0,0.1,29.68,NE,39,2.2,3.6,15,0.00,,,0.00,VWS V14.01,2013-03-24 16:43:00,
2013-03-24 12:44:00,45.0,0.1,29.68,ENE,75,4.9,4.9,15,0.00,,,0.00,VWS V14.01,2013-03-24 16:44:00,
2013-03-24 12:46:00,45.0,0.1,29.68,North,357,2.7,4.0,15,0.00,,,0.00,VWS V14.01,2013-03-24 16:46:00,
2013-03-24 12:47:00,45.0,0.1,29.68,WNW,284,0.0,0.0,15,0.00,,,0.00,VWS V14.01,2013-03-24 16:47:00,
2013-03-24 12:50:00,45.0,0.1,29.68,NW,323,0.0,2.2,15,0.00,,,0.00,VWS V14.01,2013-03-24 16:50:00,
2013-03-24 12:51:00,45.0,0.1,29.68,West,276,0.0,0.0,15,0.00,,,0.00,VWS V14.01,2013-03-24 16:51:00,
2013-03-24 12:54:00,45.1,0.3,29.65,NE,44,0.0,0.0,15,0.00,,,0.00,VWS V14.01,2013-03-24 16:54:00,
2013-03-24 12:55:00,45.5,0.6,29.65,ENE,66,0.0,4.0,15,0.00,,,0.00,VWS V14.01,2013-03-24 16:55:00,
2013-03-24 12:56:00,45.5,0.6,29.65,West,281,0.0,4.0,15,0.00,,,0.00,VWS V14.01,2013-03-24 16:56:00,
2013-03-24 12:57:00,45.7,0.7,29.65,WNW,302,3.1,4.9,15,0.00,,,0.00,VWS V14.01,2013-03-24 16:57:00,
2013-03-24 13:00:00,45.5,0.6,29.65,North,353,3.6,4.9,15,0.00,,,0.00,VWS V14.01,2013-03-24 17:00:00,
2013-03-24 13:01:00,45.3,0.4,29.65,NNE,16,2.7,2.7,15,0.00,,,0.00,VWS V14.01,2013-03-24 17:01:00,
2013-03-24 13:02:00,45.3,0.4,29.65,North,357,4.9,4.9,15,0.00,,,0.00,VWS V14.01,2013-03-24 17:02:00,
2013-03-24 13:04:00,45.3,0.4,29.65,SSW,207,0.0,0.0,15,0.00,,,0.00,VWS V14.01,2013-03-24 17:04:00,
2013-03-24 13:06:00,45.1,0.3,29.65,East,96,0.0,2.2,15,0.00,,,0.00,VWS V14.01,2013-03-24 17:06:00,
2013-03-24 13:07:00,45.1,0.3,29.65,East,88,0.0,2.2,15,0.00,,,0.00,VWS V14.01,2013-03-24 17:07:00,
2013-03-24 13:09:00,45.1,0.3,29.65,NW,326,2.7,4.0,15,0.00,,,0.00,VWS V14.01,2013-03-24 17:09:00,
2013-03-24 13:12:00,45.1,0.3,29.65,NNE,16,5.4,5.4,15,0.00,,,0.00,VWS V14.01,2013-03-24 17:12:00,
2013-03-24 13:16:00,45.1,0.3,29.65,East,84,0.0,0.0,15,0.00,,,0.00,VWS V14.01,2013-03-24 17:16:00,
2013-03-24 13:17:00,45.3,0.4,29.65,NE,49,0.0,0.0,15,0.00,,,0.00,VWS V14.01,2013-03-24 17:17:00,
2013-03-24 13:18:00,45.3,0.4,29.65,East,85,3.1,3.6,15,0.00,,,0.00,VWS V14.01,2013-03-24 17:18:00,
2013-03-24 13:19:00,45.3,0.4,29.65,East,90,3.1,3.6,15,0.00,,,0.00,VWS V14.01,2013-03-24 17:19:00,
2013-03-24 13:21:00,45.3,0.4,29.65,East,95,0.0,2.7,15,0.00,,,0.00,VWS V14.01,2013-03-24 17:21:00,
2013-03-24 13:24:00,45.5,0.6,29.62,SE,137,0.0,0.0,15,0.00,,,0.00,VWS V14.01,2013-03-24 17:24:00,
2013-03-24 13:26:00,45.5,0.6,29.62,SSE,149,0.0,0.0,15,0.00,,,0.00,VWS V14.01,2013-03-24 17:26:00,
2013-03-24 13:29:00,45.7,0.7,29.62,ENE,64,3.1,4.0,15,0.00,,,0.00,VWS V14.01,2013-03-24 17:29:00,
2013-03-24 13:32:00,45.9,0.8,29.62,ESE,109,0.0,0.0,15,0.00,,,0.00,VWS V14.01,2013-03-24 17:32:00,
2013-03-24 13:33:00,45.7,0.7,29.62,East,80,2.7,3.1,15,0.00,,,0.00,VWS V14.01,2013-03-24 17:33:00,
2013-03-24 13:34:00,45.9,0.8,29.62,SE,131,0.0,0.0,15,0.00,,,0.00,VWS V14.01,2013-03-24 17:34:00,
2013-03-24 13:35:00,45.9,0.8,29.62,SE,130,0.0,0.0,15,0.00,,,0.00,VWS V14.01,2013-03-24 17:35:00,
2013-03-24 13:37:00,46.0,1.0,29.62,East,83,0.0,2.7,15,0.00,,,0.00,VWS V14.01,2013-03-24 17:37:00,
2013-03-24 13:40:00,46.0,1.0,29.62,ENE,67,2.7,3.6,15,0.00,,,0.00,VWS V14.01,2013-03-24 17:40:00,
2013-03-24 13:42:00,46.0,1.0,29.62,ESE,122,4.9,4.9,15,0.00,,,0.00,VWS V14.01,2013-03-24 17:42:00,
2013-03-24 13:45:00,45.9,0.8,29.62,SSE,157,0.0,0.0,15,0.00,,,0.00,VWS V14.01,2013-03-24 17:45:00,
2013-03-24 13:48:00,45.9,0.8,29.62,ENE,61,0.0,0.0,15,0.00,,,0.00,VWS V14.01,2013-03-24 17:48:00,
2013-03-24 13:49:00,45.9,0.8,29.62,ESE,114,0.0,0.0,15,0.00,,,0.00,VWS V14.01,2013-03-24 17:49:00,
2013-03-24 13:52:00,46.0,1.0,29.59,ESE,106,2.7,2.7,15,0.00,,,0.00,VWS V14.01,2013-03-24 17:52:00,
2013-03-24 13:53:00,46.0,1.0,29.59,NE,38,2.7,3.1,15,0.00,,,0.00,VWS V14.01,2013-03-24 17:53:00,
2013-03-24 13:54:00,46.2,1.1,29.59,ENE,61,2.2,3.6,15,0.00,,,0.00,VWS V14.01,2013-03-24 17:54:00,
2013-03-24 13:57:00,46.6,-0.1,29.59,NNE,33,4.0,4.0,14,0.00,,,0.00,VWS V14.01,2013-03-24 17:57:00,
2013-03-24 13:59:00,46.6,-0.1,29.59,ENE,75,3.1,3.1,14,0.00,,,0.00,VWS V14.01,2013-03-24 17:59:00,
2013-03-24 14:00:00,46.6,-0.1,29.59,ENE,70,0.0,3.1,14,0.00,,,0.00,VWS V14.01,2013-03-24 18:00:00,
2013-03-24 14:01:00,46.8,0.1,29.59,NE,42,3.6,3.6,14,0.00,,,0.00,VWS V14.01,2013-03-24 18:01:00,
2013-03-24 14:05:00,46.9,0.2,29.59,ESE,105,2.7,3.6,14,0.00,,,0.00,VWS V14.01,2013-03-24 18:05:00,
2013-03-24 14:06:00,46.9,0.2,29.59,NE,52,2.2,4.0,14,0.00,,,0.00,VWS V14.01,2013-03-24 18:06:00,
2013-03-24 14:11:00,46.9,0.2,29.56,East,100,0.0,3.6,14,0.00,,,0.00,VWS V14.01,2013-03-24 18:11:00,
2013-03-24 14:12:00,46.9,0.2,29.56,East,80,2.2,2.2,14,0.00,,,0.00,VWS V14.01,2013-03-24 18:12:00,
2013-03-24 14:13:00,46.8,0.1,29.56,East,97,4.0,4.0,14,0.00,,,0.00,VWS V14.01,2013-03-24 18:13:00,
2013-03-24 14:16:00,46.8,0.1,29.56,ENE,58,0.0,3.6,14,0.00,,,0.00,VWS V14.01,2013-03-24 18:16:00,
2013-03-24 14:17:00,46.8,0.1,29.56,ENE,74,0.0,0.0,14,0.00,,,0.00,VWS V14.01,2013-03-24 18:17:00,
2013-03-24 14:18:00,46.8,0.1,29.56,ENE,75,0.0,0.0,14,0.00,,,0.00,VWS V14.01,2013-03-24 18:18:00,
2013-03-24 14:23:00,46.9,0.2,29.59,NE,41,2.7,3.1,14,0.00,,,0.00,VWS V14.01,2013-03-24 18:23:00,
2013-03-24 14:24:00,46.9,0.2,29.59,East,98,3.1,4.0,14,0.00,,,0.00,VWS V14.01,2013-03-24 18:24:00,
2013-03-24 14:28:00,47.1,0.4,29.59,North,353,4.0,4.0,14,0.00,,,0.00,VWS V14.01,2013-03-24 18:28:00,
2013-03-24 14:33:00,46.9,0.2,29.59,NW,314,0.0,0.0,14,0.00,,,0.00,VWS V14.01,2013-03-24 18:33:00,
2013-03-24 14:34:00,46.9,0.2,29.59,North,0,0.0,0.0,14,0.00,,,0.00,VWS V14.01,2013-03-24 18:34:00,
2013-03-24 14:35:00,47.1,0.4,29.59,NE,45,0.0,0.0,14,0.00,,,0.00,VWS V14.01,2013-03-24 18:35:00,
2013-03-24 14:38:00,47.1,0.4,29.59,NNW,331,2.7,4.0,14,0.00,,,0.00,VWS V14.01,2013-03-24 18:38:00,
2013-03-24 14:39:00,47.1,0.4,29.59,ENE,72,4.0,5.4,14,0.00,,,0.00,VWS V14.01,2013-03-24 18:39:00,
2013-03-24 14:40:00,46.9,0.2,29.59,East,83,3.6,4.0,14,0.00,,,0.00,VWS V14.01,2013-03-24 18:40:00,
2013-03-24 14:42:00,46.9,0.2,29.59,East,84,0.0,0.0,14,0.00,,,0.00,VWS V14.01,2013-03-24 18:42:00,
2013-03-24 14:44:00,46.8,0.1,29.59,East,96,2.2,3.6,14,0.00,,,0.00,VWS V14.01,2013-03-24 18:44:00,
2013-03-24 14:45:00,46.8,0.1,29.59,ESE,107,0.0,0.0,14,0.00,,,0.00,VWS V14.01,2013-03-24 18:45:00,
2013-03-24 14:47:00,46.8,0.1,29.59,NNE,32,0.0,0.0,14,0.00,,,0.00,VWS V14.01,2013-03-24 18:47:00,
2013-03-24 14:49:00,46.8,0.1,29.59,NE,42,0.0,0.0,14,0.00,,,0.00,VWS V14.01,2013-03-24 18:49:00,
2013-03-24 14:50:00,46.8,0.1,29.59,East,89,0.0,0.0,14,0.00,,,0.00,VWS V14.01,2013-03-24 18:50:00,
2013-03-24 14:52:00,46.8,0.1,29.56,SSE,157,2.7,4.0,14,0.00,,,0.00,VWS V14.01,2013-03-24 18:52:00,
2013-03-24 14:53:00,46.9,0.2,29.56,SSE,157,0.0,4.0,14,0.00,,,0.00,VWS V14.01,2013-03-24 18:53:00,
2013-03-24 14:56:00,47.1,0.4,29.56,East,95,2.7,2.7,14,0.00,,,0.00,VWS V14.01,2013-03-24 18:56:00,
2013-03-24 14:58:00,47.1,0.4,29.56,East,88,3.1,3.6,14,0.00,,,0.00,VWS V14.01,2013-03-24 18:58:00,
2013-03-24 15:00:00,46.9,0.2,29.56,ESE,110,0.0,3.6,14,0.00,,,0.00,VWS V14.01,2013-03-24 19:00:00,
2013-03-24 15:02:00,47.1,0.4,29.56,ESE,114,0.0,0.0,14,0.00,,,0.00,VWS V14.01,2013-03-24 19:02:00,
2013-03-24 15:03:00,47.1,0.4,29.56,SSE,160,0.0,0.0,14,0.00,,,0.00,VWS V14.01,2013-03-24 19:03:00,
2013-03-24 15:04:00,47.1,0.4,29.56,ESE,117,0.0,0.0,14,0.00,,,0.00,VWS V14.01,2013-03-24 19:04:00,
2013-03-24 15:07:00,47.1,0.4,29.56,NW,311,0.0,0.0,14,0.00,,,0.00,VWS V14.01,2013-03-24 19:07:00,
2013-03-24 15:08:00,47.1,0.4,29.56,NE,43,0.0,0.0,14,0.00,,,0.00,VWS V14.01,2013-03-24 19:08:00,
2013-03-24 15:09:00,47.1,0.4,29.56,NE,56,2.2,2.7,14,0.00,,,0.00,VWS V14.01,2013-03-24 19:09:00,
2013-03-24 15:10:00,47.1,0.4,29.56,NNE,21,2.2,2.2,14,0.00,,,0.00,VWS V14.01,2013-03-24 19:10:00,
2013-03-24 15:14:00,46.9,0.2,29.56,ENE,68,0.0,3.6,14,0.00,,,0.00,VWS V14.01,2013-03-24 19:14:00,
2013-03-24 15:15:00,46.9,0.2,29.56,NNE,27,0.0,2.7,14,0.00,,,0.00,VWS V14.01,2013-03-24 19:15:00,
2013-03-24 15:16:00,46.9,0.2,29.56,East,90,5.4,5.4,14,0.00,,,0.00,VWS V14.01,2013-03-24 19:16:00,
2013-03-24 15:19:00,46.9,0.2,29.56,NE,36,0.0,3.1,14,0.00,,,0.00,VWS V14.01,2013-03-24 19:19:00,
2013-03-24 15:20:00,46.9,0.2,29.56,ESE,112,3.6,4.0,14,0.00,,,0.00,VWS V14.01,2013-03-24 19:20:00,
2013-03-24 15:22:00,46.9,0.2,29.56,ESE,105,0.0,2.7,14,0.00,,,0.00,VWS V14.01,2013-03-24 19:22:00,
2013-03-24 15:25:00,46.9,0.2,29.53,NE,52,2.7,3.1,14,0.00,,,0.00,VWS V14.01,2013-03-24 19:25:00,
2013-03-24 15:27:00,46.9,0.2,29.53,NNE,20,3.6,3.6,14,0.00,,,0.00,VWS V14.01,2013-03-24 19:27:00,
2013-03-24 15:28:00,46.9,0.2,29.53,NE,42,0.0,0.0,14,0.00,,,0.00,VWS V14.01,2013-03-24 19:28:00,
2013-03-24 15:29:00,46.9,0.2,29.53,NE,44,0.0,0.0,14,0.00,,,0.00,VWS V14.01,2013-03-24 19:29:00,
2013-03-24 15:33:00,46.9,0.2,29.53,NE,51,2.7,2.7,14,0.00,,,0.00,VWS V14.01,2013-03-24 19:33:00,
2013-03-24 15:34:00,46.9,0.2,29.53,ENE,78,3.1,3.1,14,0.00,,,0.00,VWS V14.01,2013-03-24 19:34:00,
2013-03-24 15:35:00,46.9,0.2,29.53,NE,43,2.7,3.1,14,0.00,,,0.00,VWS V14.01,2013-03-24 19:35:00,
2013-03-24 15:39:00,46.9,0.2,29.53,NE,45,4.0,4.0,14,0.00,,,0.00,VWS V14.01,2013-03-24 19:39:00,
2013-03-24 15:40:00,46.8,0.1,29.53,NE,48,0.0,4.0,14,0.00,,,0.00,VWS V14.01,2013-03-24 19:40:00,
2013-03-24 15:41:00,46.8,0.1,29.53,NE,48,0.0,0.0,14,0.00,,,0.00,VWS V14.01,2013-03-24 19:41:00,
2013-03-24 15:45:00,46.9,0.2,29.53,ESE,102,2.2,2.7,14,0.00,,,0.00,VWS V14.01,2013-03-24 19:45:00,
2013-03-24 15:46:00,46.9,0.2,29.53,ESE,102,0.0,2.7,14,0.00,,,0.00,VWS V14.01,2013-03-24 19:46:00,
2013-03-24 15:47:00,46.8,0.1,29.53,ESE,105,2.7,3.1,14,0.00,,,0.00,VWS V14.01,2013-03-24 19:47:00,
2013-03-24 15:51:00,46.6,-0.1,29.53,East,95,0.0,0.0,14,0.00,,,0.00,VWS V14.01,2013-03-24 19:51:00,
2013-03-24 15:52:00,46.6,-0.1,29.53,ENE,61,0.0,0.0,14,0.00,,,0.00,VWS V14.01,2013-03-24 19:52:00,
2013-03-24 15:54:00,46.6,-0.1,29.53,East,81,0.0,3.6,14,0.00,,,0.00,VWS V14.01,2013-03-24 19:54:00,
2013-03-24 15:57:00,46.6,-0.1,29.53,North,7,5.4,5.4,14,0.00,,,0.00,VWS V14.01,2013-03-24 19:57:00,
2013-03-24 15:58:00,46.6,-0.1,29.53,NNE,22,2.7,3.6,14,0.00,,,0.00,VWS V14.01,2013-03-24 19:58:00,
2013-03-24 15:59:00,46.6,-0.1,29.53,NNE,22,0.0,2.7,14,0.00,,,0.00,VWS V14.01,2013-03-24 19:59:00,
2013-03-24 16:01:00,46.6,-0.1,29.53,ESE,106,3.6,3.6,14,0.00,,,0.00,VWS V14.01,2013-03-24 20:01:00,
2013-03-24 16:04:00,46.6,-0.1,29.53,NE,52,0.0,0.0,14,0.00,,,0.00,VWS V14.01,2013-03-24 20:04:00,
2013-03-24 16:06:00,46.6,-0.1,29.53,NE,39,0.0,0.0,14,0.00,,,0.00,VWS V14.01,2013-03-24 20:06:00,
2013-03-24 16:07:00,46.6,-0.1,29.53,NE,44,0.0,0.0,14,0.00,,,0.00,VWS V14.01,2013-03-24 20:07:00,
2013-03-24 16:09:00,46.6,-0.1,29.53,NE,42,2.2,2.7,14,0.00,,,0.00,VWS V14.01,2013-03-24 20:09:00,
2013-03-24 16:11:00,46.6,-0.1,29.53,East,84,2.7,2.7,14,0.00,,,0.00,VWS V14.01,2013-03-24 20:11:00,
2013-03-24 16:12:00,46.6,-0.1,29.53,ESE,103,3.1,3.1,14,0.00,,,0.00,VWS V14.01,2013-03-24 20:12:00,
2013-03-24 16:13:00,46.4,-0.2,29.53,ENE,75,0.0,3.1,14,0.00,,,0.00,VWS V14.01,2013-03-24 20:13:00,
2013-03-24 16:15:00,46.4,-0.2,29.53,NE,36,0.0,0.0,14,0.00,,,0.00,VWS V14.01,2013-03-24 20:15:00,
2013-03-24 16:16:00,46.4,-0.2,29.53,ENE,61,2.7,3.6,14,0.00,,,0.00,VWS V14.01,2013-03-24 20:16:00,
2013-03-24 16:19:00,46.4,-0.2,29.53,NNE,29,0.0,0.0,14,0.00,,,0.00,VWS V14.01,2013-03-24 20:19:00,
2013-03-24 16:20:00,46.4,-0.2,29.53,ENE,59,0.0,0.0,14,0.00,,,0.00,VWS V14.01,2013-03-24 20:20:00,
2013-03-24 16:22:00,46.4,-0.2,29.53,ENE,60,0.0,0.0,14,0.00,,,0.00,VWS V14.01,2013-03-24 20:22:00,
2013-03-24 16:23:00,46.4,-0.2,29.53,NE,44,0.0,0.0,14,0.00,,,0.00,VWS V14.01,2013-03-24 20:23:00,
2013-03-24 16:27:00,46.4,-0.2,29.53,SE,140,2.2,3.1,14,0.00,,,0.00,VWS V14.01,2013-03-24 20:27:00,
2013-03-24 16:28:00,46.4,-0.2,29.53,East,97,0.0,2.2,14,0.00,,,0.00,VWS V14.01,2013-03-24 20:28:00,
2013-03-24 16:30:00,46.4,-0.2,29.53,East,98,0.0,0.0,14,0.00,,,0.00,VWS V14.01,2013-03-24 20:30:00,
2013-03-24 16:32:00,46.4,-0.2,29.53,South,173,0.0,0.0,14,0.00,,,0.00,VWS V14.01,2013-03-24 20:32:00,
2013-03-24 16:33:00,46.4,-0.2,29.53,SSE,165,0.0,0.0,14,0.00,,,0.00,VWS V14.01,2013-03-24 20:33:00,
2013-03-24 16:34:00,46.4,-0.2,29.53,ESE,103,0.0,0.0,14,0.00,,,0.00,VWS V14.01,2013-03-24 20:34:00,
2013-03-24 16:37:00,46.4,-0.2,29.53,ESE,102,0.0,0.0,14,0.00,,,0.00,VWS V14.01,2013-03-24 20:37:00,
2013-03-24 16:38:00,46.4,-0.2,29.53,ESE,110,0.0,0.0,14,0.00,,,0.00,VWS V14.01,2013-03-24 20:38:00,
2013-03-24 16:40:00,46.4,-0.2,29.53,NE,52,0.0,2.2,14,0.00,,,0.00,VWS V14.01,2013-03-24 20:40:00,
2013-03-24 16:42:00,46.2,1.1,29.53,NE,39,0.0,3.6,15,0.00,,,0.00,VWS V14.01,2013-03-24 20:42:00,
2013-03-24 16:43:00,46.2,1.1,29.53,NE,39,0.0,3.6,15,0.00,,,0.00,VWS V14.01,2013-03-24 20:43:00,
2013-03-24 16:45:00,46.2,1.1,29.53,East,83,0.0,0.0,15,0.00,,,0.00,VWS V14.01,2013-03-24 20:45:00,
2013-03-24 16:48:00,46.2,1.1,29.53,NNE,25,0.0,0.0,15,0.00,,,0.00,VWS V14.01,2013-03-24 20:48:00,
2013-03-24 16:50:00,46.0,1.0,29.53,NE,49,0.0,2.7,15,0.00,,,0.00,VWS V14.01,2013-03-24 20:50:00,
2013-03-24 16:53:00,46.0,1.0,29.53,NNE,31,2.7,2.7,15,0.00,,,0.00,VWS V14.01,2013-03-24 20:53:00,
2013-03-24 16:54:00,46.0,1.0,29.53,NNE,30,0.0,0.0,15,0.00,,,0.00,VWS V14.01,2013-03-24 20:54:00,
2013-03-24 16:58:00,45.9,0.8,29.53,NNE,28,0.0,0.0,15,0.00,,,0.00,VWS V14.01,2013-03-24 20:58:00,
2013-03-24 16:59:00,45.9,0.8,29.53,SE,127,0.0,0.0,15,0.00,,,0.00,VWS V14.01,2013-03-24 20:59:00,
2013-03-24 17:00:00,45.9,0.8,29.53,SE,127,0.0,0.0,15,0.00,,,0.00,VWS V14.01,2013-03-24 21:00:00,
2013-03-24 17:05:00,45.9,0.8,29.53,SE,129,0.0,0.0,15,0.00,,,0.00,VWS V14.01,2013-03-24 21:05:00,
2013-03-24 17:06:00,45.9,0.8,29.53,North,357,0.0,0.0,15,0.00,,,0.00,VWS V14.01,2013-03-24 21:06:00,
2013-03-24 17:07:00,45.9,0.8,29.53,North,357,0.0,0.0,15,0.00,,,0.00,VWS V14.01,2013-03-24 21:07:00,
2013-03-24 17:10:00,45.9,0.8,29.53,NE,39,0.0,0.0,15,0.00,,,0.00,VWS V14.01,2013-03-24 21:10:00,
2013-03-24 17:11:00,45.9,0.8,29.53,NE,39,0.0,0.0,15,0.00,,,0.00,VWS V14.01,2013-03-24 21:11:00,
2013-03-24 17:12:00,45.9,0.8,29.53,NE,39,0.0,0.0,15,0.00,,,0.00,VWS V14.01,2013-03-24 21:12:00,
2013-03-24 17:16:00,45.7,0.7,29.53,NNE,20,0.0,3.1,15,0.00,,,0.00,VWS V14.01,2013-03-24 21:16:00,
2013-03-24 17:17:00,45.7,0.7,29.53,NNE,23,0.0,2.7,15,0.00,,,0.00,VWS V14.01,2013-03-24 21:17:00,
2013-03-24 17:20:00,45.7,0.7,29.53,NNE,32,0.0,2.7,15,0.00,,,0.00,VWS V14.01,2013-03-24 21:20:00,
2013-03-24 17:21:00,45.5,0.6,29.53,NE,47,2.7,2.7,15,0.00,,,0.00,VWS V14.01,2013-03-24 21:21:00,
2013-03-24 17:23:00,45.5,0.6,29.53,NNE,25,0.0,2.2,15,0.00,,,0.00,VWS V14.01,2013-03-24 21:23:00,
2013-03-24 17:24:00,45.5,0.6,29.53,NNE,21,0.0,0.0,15,0.00,,,0.00,VWS V14.01,2013-03-24 21:24:00,
2013-03-24 17:26:00,45.5,0.6,29.53,NE,39,0.0,0.0,15,0.00,,,0.00,VWS V14.01,2013-03-24 21:26:00,
2013-03-24 17:27:00,45.5,0.6,29.53,NE,34,0.0,0.0,15,0.00,,,0.00,VWS V14.01,2013-03-24 21:27:00,
2013-03-24 17:29:00,45.3,0.4,29.53,NNE,18,0.0,0.0,15,0.00,,,0.00,VWS V14.01,2013-03-24 21:29:00,
2013-03-24 17:30:00,45.3,0.4,29.53,North,353,0.0,0.0,15,0.00,,,0.00,VWS V14.01,2013-03-24 21:30:00,
2013-03-24 17:32:00,45.3,0.4,29.53,North,353,0.0,0.0,15,0.00,,,0.00,VWS V14.01,2013-03-24 21:32:00,
2013-03-24 17:34:00,45.3,0.4,29.53,North,353,0.0,0.0,15,0.00,,,0.00,VWS V14.01,2013-03-24 21:34:00,
2013-03-24 17:36:00,45.3,0.4,29.53,North,353,0.0,0.0,15,0.00,,,0.00,VWS V14.01,2013-03-24 21:36:00,
2013-03-24 17:38:00,45.3,0.4,29.50,North,353,0.0,0.0,15,0.00,,,0.00,VWS V14.01,2013-03-24 21:38:00,
2013-03-24 17:39:00,45.3,0.4,29.50,NNE,31,2.7,2.7,15,0.00,,,0.00,VWS V14.01,2013-03-24 21:39:00,
2013-03-24 17:43:00,45.3,0.4,29.50,NE,40,0.0,0.0,15,0.00,,,0.00,VWS V14.01,2013-03-24 21:43:00,
2013-03-24 17:44:00,45.3,0.4,29.50,NE,46,0.0,0.0,15,0.00,,,0.00,VWS V14.01,2013-03-24 21:44:00,
2013-03-24 17:47:00,45.3,0.4,29.50,NE,38,0.0,0.0,15,0.00,,,0.00,VWS V14.01,2013-03-24 21:47:00,
2013-03-24 17:48:00,45.1,0.3,29.50,NE,37,0.0,0.0,15,0.00,,,0.00,VWS V14.01,2013-03-24 21:48:00,
2013-03-24 17:49:00,45.1,0.3,29.50,NNE,16,0.0,0.0,15,0.00,,,0.00,VWS V14.01,2013-03-24 21:49:00,
2013-03-24 17:54:00,45.1,0.3,29.50,NNE,30,0.0,0.0,15,0.00,,,0.00,VWS V14.01,2013-03-24 21:54:00,
2013-03-24 17:55:00,45.1,0.3,29.50,NNE,26,0.0,0.0,15,0.00,,,0.00,VWS V14.01,2013-03-24 21:55:00,
2013-03-24 18:00:00,45.0,0.1,29.50,North,357,0.0,3.6,15,0.00,,,0.00,VWS V14.01,2013-03-24 22:00:00,
2013-03-24 18:01:00,45.0,0.1,29.50,North,2,0.0,0.0,15,0.00,,,0.00,VWS V14.01,2013-03-24 22:01:00,
2013-03-24 18:05:00,44.8,0.0,29.50,North,2,0.0,0.0,15,0.00,,,0.00,VWS V14.01,2013-03-24 22:05:00,
2013-03-24 18:06:00,44.8,0.0,29.50,NNE,31,0.0,0.0,15,0.00,,,0.00,VWS V14.01,2013-03-24 22:06:00,
2013-03-24 18:12:00,44.8,0.0,29.50,NNE,15,0.0,0.0,15,0.00,,,0.00,VWS V14.01,2013-03-24 22:12:00,
2013-03-24 18:13:00,44.8,0.0,29.50,NNE,15,0.0,0.0,15,0.00,,,0.00,VWS V14.01,2013-03-24 22:13:00,
2013-03-24 18:14:00,44.8,0.0,29.50,NNE,15,0.0,0.0,15,0.00,,,0.00,VWS V14.01,2013-03-24 22:14:00,
2013-03-24 18:18:00,44.6,-0.2,29.50,North,11,0.0,0.0,15,0.00,,,0.00,VWS V14.01,2013-03-24 22:18:00,
2013-03-24 18:20:00,44.6,-0.2,29.50,North,11,0.0,0.0,15,0.00,,,0.00,VWS V14.01,2013-03-24 22:20:00,
2013-03-24 18:21:00,44.6,-0.2,29.50,North,11,0.0,0.0,15,0.00,,,0.00,VWS V14.01,2013-03-24 22:21:00,
2013-03-24 18:24:00,44.6,-0.2,29.50,East,95,0.0,0.0,15,0.00,,,0.00,VWS V14.01,2013-03-24 22:24:00,
2013-03-24 18:26:00,44.4,-0.3,29.50,East,96,0.0,0.0,15,0.00,,,0.00,VWS V14.01,2013-03-24 22:26:00,
2013-03-24 18:27:00,44.4,-0.3,29.50,East,96,0.0,0.0,15,0.00,,,0.00,VWS V14.01,2013-03-24 22:27:00,
2013-03-24 18:29:00,44.2,-0.5,29.50,East,96,0.0,0.0,15,0.00,,,0.00,VWS V14.01,2013-03-24 22:29:00,
2013-03-24 18:31:00,44.2,-0.5,29.50,SE,134,0.0,0.0,15,0.00,,,0.00,VWS V14.01,2013-03-24 22:31:00,
2013-03-24 18:33:00,44.2,-0.5,29.50,SE,131,0.0,0.0,15,0.00,,,0.00,VWS V14.01,2013-03-24 22:33:00,
2013-03-24 18:35:00,44.2,-0.5,29.50,SE,131,0.0,0.0,15,0.00,,,0.00,VWS V14.01,2013-03-24 22:35:00,
2013-03-24 18:36:00,44.2,-0.5,29.50,SE,131,0.0,0.0,15,0.00,,,0.00,VWS V14.01,2013-03-24 22:36:00,
2013-03-24 18:39:00,44.2,-0.5,29.50,SE,131,0.0,0.0,15,0.00,,,0.00,VWS V14.01,2013-03-24 22:39:00,
2013-03-24 18:40:00,44.1,-0.6,29.50,SE,131,0.0,0.0,15,0.00,,,0.00,VWS V14.01,2013-03-24 22:40:00,
2013-03-24 18:43:00,44.1,-0.6,29.50,SE,131,0.0,0.0,15,0.00,,,0.00,VWS V14.01,2013-03-24 22:43:00,
2013-03-24 18:44:00,44.1,-0.6,29.50,SE,131,0.0,0.0,15,0.00,,,0.00,VWS V14.01,2013-03-24 22:44:00,
2013-03-24 18:45:00,44.1,-0.6,29.50,ESE,118,0.0,0.0,15,0.00,,,0.00,VWS V14.01,2013-03-24 22:45:00,
2013-03-24 18:46:00,44.1,-0.6,29.50,East,91,0.0,0.0,15,0.00,,,0.00,VWS V14.01,2013-03-24 22:46:00,
2013-03-24 18:48:00,44.1,-0.6,29.50,ENE,71,0.0,0.0,15,0.00,,,0.00,VWS V14.01,2013-03-24 22:48:00,
2013-03-24 18:51:00,44.1,-0.6,29.50,ENE,71,0.0,0.0,15,0.00,,,0.00,VWS V14.01,2013-03-24 22:51:00,
2013-03-24 18:52:00,44.1,-0.6,29.50,ENE,71,0.0,0.0,15,0.00,,,0.00,VWS V14.01,2013-03-24 22:52:00,
2013-03-24 18:55:00,44.1,-0.6,29.50,ENE,71,0.0,0.0,15,0.00,,,0.00,VWS V14.01,2013-03-24 22:55:00,
2013-03-24 18:56:00,43.9,-0.8,29.50,ENE,71,0.0,0.0,15,0.00,,,0.00,VWS V14.01,2013-03-24 22:56:00,
2013-03-24 18:58:00,43.9,-0.8,29.50,ENE,71,0.0,0.0,15,0.00,,,0.00,VWS V14.01,2013-03-24 22:58:00,
2013-03-24 18:59:00,43.9,-0.8,29.50,ENE,71,0.0,0.0,15,0.00,,,0.00,VWS V14.01,2013-03-24 22:59:00,
2013-03-24 19:01:00,43.9,-0.8,29.50,ENE,71,0.0,0.0,15,0.00,,,0.00,VWS V14.01,2013-03-24 23:01:00,
2013-03-24 19:02:00,43.9,-0.8,29.50,ENE,71,0.0,0.0,15,0.00,,,0.00,VWS V14.01,2013-03-24 23:02:00,
2013-03-24 19:04:00,43.7,-0.9,29.50,ENE,71,0.0,0.0,15,0.00,,,0.00,VWS V14.01,2013-03-24 23:04:00,
2013-03-24 19:05:00,43.7,-0.9,29.50,ENE,71,0.0,0.0,15,0.00,,,0.00,VWS V14.01,2013-03-24 23:05:00,
2013-03-24 19:06:00,43.7,-0.9,29.50,ENE,71,0.0,0.0,15,0.00,,,0.00,VWS V14.01,2013-03-24 23:06:00,
2013-03-24 19:08:00,43.7,-0.9,29.50,ENE,71,0.0,0.0,15,0.00,,,0.00,VWS V14.01,2013-03-24 23:08:00,
2013-03-24 19:10:00,43.7,-0.9,29.50,ENE,71,0.0,0.0,15,0.00,,,0.00,VWS V14.01,2013-03-24 23:10:00,
2013-03-24 19:12:00,43.5,-1.1,29.50,ENE,71,0.0,0.0,15,0.00,,,0.00,VWS V14.01,2013-03-24 23:12:00,
2013-03-24 19:13:00,43.5,-1.1,29.50,ENE,71,0.0,0.0,15,0.00,,,0.00,VWS V14.01,2013-03-24 23:13:00,
2013-03-24 19:15:00,43.5,-1.1,29.50,ENE,71,0.0,0.0,15,0.00,,,0.00,VWS V14.01,2013-03-24 23:15:00,
2013-03-24 19:17:00,43.5,-1.1,29.50,ENE,71,0.0,0.0,15,0.00,,,0.00,VWS V14.01,2013-03-24 23:17:00,
2013-03-24 19:19:00,43.5,-1.1,29.50,ENE,71,0.0,0.0,15,0.00,,,0.00,VWS V14.01,2013-03-24 23:19:00,
2013-03-24 19:20:00,43.3,-1.2,29.50,ENE,71,0.0,0.0,15,0.00,,,0.00,VWS V14.01,2013-03-24 23:20:00,
2013-03-24 19:22:00,43.3,-1.2,29.50,ENE,71,0.0,0.0,15,0.00,,,0.00,VWS V14.01,2013-03-24 23:22:00,
2013-03-24 19:24:00,43.3,-1.2,29.50,ENE,71,0.0,0.0,15,0.00,,,0.00,VWS V14.01,2013-03-24 23:24:00,
2013-03-24 19:25:00,43.3,-1.2,29.50,ENE,71,0.0,0.0,15,0.00,,,0.00,VWS V14.01,2013-03-24 23:25:00,
2013-03-24 19:26:00,43.3,-1.2,29.50,ENE,71,0.0,0.0,15,0.00,,,0.00,VWS V14.01,2013-03-24 23:26:00,
2013-03-24 19:30:00,43.2,-1.4,29.50,East,94,0.0,0.0,15,0.00,,,0.00,VWS V14.01,2013-03-24 23:30:00,
2013-03-24 19:31:00,43.2,-1.4,29.50,East,94,0.0,0.0,15,0.00,,,0.00,VWS V14.01,2013-03-24 23:31:00,
2013-03-24 19:35:00,43.2,-1.4,29.50,East,94,0.0,0.0,15,0.00,,,0.00,VWS V14.01,2013-03-24 23:35:00,
2013-03-24 19:36:00,43.0,-1.5,29.50,East,94,0.0,0.0,15,0.00,,,0.00,VWS V14.01,2013-03-24 23:36:00,
2013-03-24 19:37:00,43.0,-1.5,29.53,East,94,0.0,0.0,15,0.00,,,0.00,VWS V14.01,2013-03-24 23:37:00,
2013-03-24 19:38:00,43.0,-1.5,29.53,East,94,0.0,0.0,15,0.00,,,0.00,VWS V14.01,2013-03-24 23:38:00,
2013-03-24 19:41:00,43.0,-1.5,29.53,East,94,0.0,0.0,15,0.00,,,0.00,VWS V14.01,2013-03-24 23:41:00,
2013-03-24 19:44:00,43.0,-1.5,29.53,East,94,0.0,0.0,15,0.00,,,0.00,VWS V14.01,2013-03-24 23:44:00,
2013-03-24 19:48:00,42.8,-1.6,29.53,East,99,0.0,0.0,15,0.00,,,0.00,VWS V14.01,2013-03-24 23:48:00,
2013-03-24 19:49:00,42.8,-1.6,29.53,East,99,0.0,0.0,15,0.00,,,0.00,VWS V14.01,2013-03-24 23:49:00,
2013-03-24 19:51:00,42.8,-1.6,29.53,East,99,0.0,0.0,15,0.00,,,0.00,VWS V14.01,2013-03-24 23:51:00,
2013-03-24 19:54:00,42.8,-1.6,29.53,East,99,0.0,0.0,15,0.00,,,0.00,VWS V14.01,2013-03-24 23:54:00,
2013-03-24 19:56:00,42.6,-0.4,29.53,East,99,0.0,0.0,16,0.00,,,0.00,VWS V14.01,2013-03-24 23:56:00,
2013-03-24 19:57:00,42.6,-0.4,29.53,East,99,0.0,0.0,16,0.00,,,0.00,VWS V14.01,2013-03-24 23:57:00,
2013-03-24 19:59:00,42.6,-0.4,29.53,East,99,0.0,0.0,16,0.00,,,0.00,VWS V14.01,2013-03-24 23:59:00,
2013-03-24 20:00:00,42.6,-0.4,29.53,East,99,0.0,0.0,16,0.00,,,0.00,VWS V14.01,2013-03-25 00:00:00,
2013-03-24 20:03:00,42.4,-0.6,29.53,East,99,0.0,0.0,16,0.00,,,0.00,VWS V14.01,2013-03-25 00:03:00,
2013-03-24 20:04:00,42.4,-0.6,29.53,East,99,0.0,0.0,16,0.00,,,0.00,VWS V14.01,2013-03-25 00:04:00,
2013-03-24 20:05:00,42.4,-0.6,29.53,East,99,0.0,0.0,16,0.00,,,0.00,VWS V14.01,2013-03-25 00:05:00,
2013-03-24 20:09:00,42.4,-0.6,29.53,ESE,105,0.0,0.0,16,0.00,,,0.00,VWS V14.01,2013-03-25 00:09:00,
2013-03-24 20:11:00,42.4,-0.6,29.53,ESE,109,0.0,0.0,16,0.00,,,0.00,VWS V14.01,2013-03-25 00:11:00,
2013-03-24 20:13:00,42.4,-0.6,29.53,ESE,109,0.0,0.0,16,0.00,,,0.00,VWS V14.01,2013-03-25 00:13:00,
2013-03-24 20:14:00,42.4,-0.6,29.53,ESE,109,0.0,0.0,16,0.00,,,0.00,VWS V14.01,2013-03-25 00:14:00,
2013-03-24 20:17:00,42.4,-0.6,29.53,ESE,109,0.0,0.0,16,0.00,,,0.00,VWS V14.01,2013-03-25 00:17:00,
2013-03-24 20:18:00,42.4,-0.6,29.53,ESE,109,0.0,0.0,16,0.00,,,0.00,VWS V14.01,2013-03-25 00:18:00,
2013-03-24 20:20:00,42.4,-0.6,29.53,ESE,109,0.0,0.0,16,0.00,,,0.00,VWS V14.01,2013-03-25 00:20:00,
2013-03-24 20:22:00,42.3,-0.7,29.53,ESE,109,0.0,0.0,16,0.00,,,0.00,VWS V14.01,2013-03-25 00:22:00,
2013-03-24 20:24:00,42.3,-0.7,29.53,ESE,109,0.0,0.0,16,0.00,,,0.00,VWS V14.01,2013-03-25 00:24:00,
2013-03-24 20:25:00,42.3,-0.7,29.53,ESE,109,0.0,0.0,16,0.00,,,0.00,VWS V14.01,2013-03-25 00:25:00,
2013-03-24 20:27:00,42.3,-0.7,29.53,ESE,109,0.0,0.0,16,0.00,,,0.00,VWS V14.01,2013-03-25 00:27:00,
2013-03-24 20:28:00,42.3,-0.7,29.53,ESE,109,0.0,0.0,16,0.00,,,0.00,VWS V14.01,2013-03-25 00:28:00,
2013-03-24 20:30:00,42.3,-0.7,29.53,ESE,109,0.0,0.0,16,0.00,,,0.00,VWS V14.01,2013-03-25 00:30:00,
2013-03-24 20:31:00,42.3,-0.7,29.53,ESE,109,0.0,0.0,16,0.00,,,0.00,VWS V14.01,2013-03-25 00:31:00,
2013-03-24 20:32:00,42.3,-0.7,29.53,ESE,109,0.0,0.0,16,0.00,,,0.00,VWS V14.01,2013-03-25 00:32:00,
2013-03-24 20:33:00,42.3,-0.7,29.53,ESE,109,0.0,0.0,16,0.00,,,0.00,VWS V14.01,2013-03-25 00:33:00,
2013-03-24 20:36:00,42.1,-0.9,29.53,ESE,109,0.0,0.0,16,0.00,,,0.00,VWS V14.01,2013-03-25 00:36:00,
2013-03-24 20:38:00,42.1,-0.9,29.53,ESE,109,0.0,0.0,16,0.00,,,0.00,VWS V14.01,2013-03-25 00:38:00,
2013-03-24 20:41:00,42.1,-0.9,29.53,ESE,109,0.0,0.0,16,0.00,,,0.00,VWS V14.01,2013-03-25 00:41:00,
2013-03-24 20:42:00,42.1,-0.9,29.53,ESE,109,0.0,0.0,16,0.00,,,0.00,VWS V14.01,2013-03-25 00:42:00,
2013-03-24 20:43:00,42.1,-0.9,29.53,ESE,109,0.0,0.0,16,0.00,,,0.00,VWS V14.01,2013-03-25 00:43:00,
2013-03-24 20:44:00,42.1,-0.9,29.53,ESE,109,0.0,0.0,16,0.00,,,0.00,VWS V14.01,2013-03-25 00:44:00,
2013-03-24 20:47:00,41.9,-1.0,29.53,ESE,109,0.0,0.0,16,0.00,,,0.00,VWS V14.01,2013-03-25 00:47:00,
2013-03-24 20:48:00,41.9,-1.0,29.53,ESE,109,0.0,0.0,16,0.00,,,0.00,VWS V14.01,2013-03-25 00:48:00,
2013-03-24 20:50:00,41.9,-1.0,29.53,ESE,109,0.0,0.0,16,0.00,,,0.00,VWS V14.01,2013-03-25 00:50:00,
2013-03-24 20:53:00,41.7,-1.2,29.53,ESE,109,0.0,0.0,16,0.00,,,0.00,VWS V14.01,2013-03-25 00:53:00,
2013-03-24 20:54:00,41.7,-1.2,29.53,ESE,109,0.0,0.0,16,0.00,,,0.00,VWS V14.01,2013-03-25 00:54:00,
2013-03-24 20:55:00,41.7,-1.2,29.53,ESE,109,0.0,0.0,16,0.00,,,0.00,VWS V14.01,2013-03-25 00:55:00,
2013-03-24 20:56:00,41.7,-1.2,29.53,ESE,109,0.0,0.0,16,0.00,,,0.00,VWS V14.01,2013-03-25 00:56:00,
2013-03-24 20:58:00,41.7,-1.2,29.53,ESE,109,0.0,0.0,16,0.00,,,0.00,VWS V14.01,2013-03-25 00:58:00,
2013-03-24 20:59:00,41.7,-1.2,29.53,ESE,109,0.0,0.0,16,0.00,,,0.00,VWS V14.01,2013-03-25 00:59:00,
2013-03-24 21:01:00,41.5,-1.3,29.53,ESE,109,0.0,0.0,16,0.00,,,0.00,VWS V14.01,2013-03-25 01:01:00,
2013-03-24 21:02:00,41.5,-1.3,29.53,ESE,109,0.0,0.0,16,0.00,,,0.00,VWS V14.01,2013-03-25 01:02:00,
2013-03-24 21:04:00,41.5,-1.3,29.53,ESE,109,0.0,0.0,16,0.00,,,0.00,VWS V14.01,2013-03-25 01:04:00,
2013-03-24 21:07:00,41.5,-1.3,29.53,ESE,109,0.0,0.0,16,0.00,,,0.00,VWS V14.01,2013-03-25 01:07:00,
2013-03-24 21:08:00,41.5,-1.3,29.53,ESE,109,0.0,0.0,16,0.00,,,0.00,VWS V14.01,2013-03-25 01:08:00,
2013-03-24 21:10:00,41.5,-1.3,29.53,ESE,109,0.0,0.0,16,0.00,,,0.00,VWS V14.01,2013-03-25 01:10:00,
2013-03-24 21:13:00,41.4,-1.5,29.53,ESE,109,0.0,0.0,16,0.00,,,0.00,VWS V14.01,2013-03-25 01:13:00,
2013-03-24 21:14:00,41.4,-1.5,29.53,ESE,109,0.0,0.0,16,0.00,,,0.00,VWS V14.01,2013-03-25 01:14:00,
2013-03-24 21:15:00,41.4,-1.5,29.53,ESE,109,0.0,0.0,16,0.00,,,0.00,VWS V14.01,2013-03-25 01:15:00,
2013-03-24 21:19:00,41.4,-1.5,29.53,ESE,109,0.0,0.0,16,0.00,,,0.00,VWS V14.01,2013-03-25 01:19:00,
2013-03-24 21:20:00,41.2,-1.6,29.53,ESE,109,0.0,0.0,16,0.00,,,0.00,VWS V14.01,2013-03-25 01:20:00,
2013-03-24 21:21:00,41.2,-1.6,29.53,ESE,109,0.0,0.0,16,0.00,,,0.00,VWS V14.01,2013-03-25 01:21:00,
2013-03-24 21:22:00,41.2,-1.6,29.53,ESE,109,0.0,0.0,16,0.00,,,0.00,VWS V14.01,2013-03-25 01:22:00,
2013-03-24 21:25:00,41.2,-1.6,29.53,ESE,109,0.0,0.0,16,0.00,,,0.00,VWS V14.01,2013-03-25 01:25:00,
2013-03-24 21:26:00,41.2,-1.6,29.53,ESE,109,0.0,0.0,16,0.00,,,0.00,VWS V14.01,2013-03-25 01:26:00,
2013-03-24 21:27:00,41.2,-1.6,29.53,ESE,109,0.0,0.0,16,0.00,,,0.00,VWS V14.01,2013-03-25 01:27:00,
2013-03-24 21:30:00,41.2,-1.6,29.53,ESE,109,0.0,0.0,16,0.00,,,0.00,VWS V14.01,2013-03-25 01:30:00,
2013-03-24 21:31:00,41.2,-1.6,29.53,ESE,109,0.0,0.0,16,0.00,,,0.00,VWS V14.01,2013-03-25 01:31:00,
2013-03-24 21:32:00,41.2,-1.6,29.53,ESE,109,0.0,0.0,16,0.00,,,0.00,VWS V14.01,2013-03-25 01:32:00,
2013-03-24 21:33:00,41.2,-1.6,29.53,ESE,109,0.0,0.0,16,0.00,,,0.00,VWS V14.01,2013-03-25 01:33:00,
2013-03-24 21:36:00,41.2,-1.6,29.53,ESE,109,0.0,0.0,16,0.00,,,0.00,VWS V14.01,2013-03-25 01:36:00,
2013-03-24 21:37:00,41.0,-1.7,29.53,ESE,109,0.0,0.0,16,0.00,,,0.00,VWS V14.01,2013-03-25 01:37:00,
2013-03-24 21:38:00,41.0,-1.7,29.53,ESE,109,0.0,0.0,16,0.00,,,0.00,VWS V14.01,2013-03-25 01:38:00,
2013-03-24 21:42:00,41.0,-1.7,29.53,ESE,109,0.0,0.0,16,0.00,,,0.00,VWS V14.01,2013-03-25 01:42:00,
2013-03-24 21:43:00,41.0,-1.7,29.53,ESE,109,0.0,0.0,16,0.00,,,0.00,VWS V14.01,2013-03-25 01:43:00,
2013-03-24 21:44:00,41.0,-1.7,29.53,ESE,109,0.0,0.0,16,0.00,,,0.00,VWS V14.01,2013-03-25 01:44:00,
2013-03-24 21:47:00,41.0,-1.7,29.53,ESE,109,0.0,0.0,16,0.00,,,0.00,VWS V14.01,2013-03-25 01:47:00,
2013-03-24 21:48:00,40.8,-1.9,29.53,ESE,109,0.0,0.0,16,0.00,,,0.00,VWS V14.01,2013-03-25 01:48:00,
2013-03-24 21:50:00,40.8,-1.9,29.53,ESE,109,0.0,0.0,16,0.00,,,0.00,VWS V14.01,2013-03-25 01:50:00,
2013-03-24 21:53:00,40.8,-1.9,29.53,ESE,109,0.0,0.0,16,0.00,,,0.00,VWS V14.01,2013-03-25 01:53:00,
2013-03-24 21:54:00,40.8,-1.9,29.53,ESE,109,0.0,0.0,16,0.00,,,0.00,VWS V14.01,2013-03-25 01:54:00,
2013-03-24 21:56:00,40.8,-1.9,29.53,ESE,109,0.0,0.0,16,0.00,,,0.00,VWS V14.01,2013-03-25 01:56:00,
2013-03-24 21:59:00,40.8,-1.9,29.53,ESE,109,0.0,0.0,16,0.00,,,0.00,VWS V14.01,2013-03-25 01:59:00,
2013-03-24 22:01:00,40.8,-1.9,29.53,ESE,109,0.0,0.0,16,0.00,,,0.00,VWS V14.01,2013-03-25 02:01:00,
2013-03-24 22:02:00,40.8,-1.9,29.53,ESE,109,0.0,0.0,16,0.00,,,0.00,VWS V14.01,2013-03-25 02:02:00,
2013-03-24 22:03:00,40.8,-1.9,29.53,ESE,109,0.0,0.0,16,0.00,,,0.00,VWS V14.01,2013-03-25 02:03:00,
2013-03-24 22:04:00,40.8,-1.9,29.53,ESE,109,0.0,0.0,16,0.00,,,0.00,VWS V14.01,2013-03-25 02:04:00,
2013-03-24 22:07:00,40.8,-1.9,29.50,ESE,109,0.0,0.0,16,0.00,,,0.00,VWS V14.01,2013-03-25 02:07:00,
2013-03-24 22:09:00,40.8,-1.9,29.50,ESE,109,0.0,0.0,16,0.00,,,0.00,VWS V14.01,2013-03-25 02:09:00,
2013-03-24 22:12:00,40.8,-1.9,29.50,ESE,109,0.0,0.0,16,0.00,,,0.00,VWS V14.01,2013-03-25 02:12:00,
2013-03-24 22:13:00,40.8,-1.9,29.50,ESE,109,0.0,0.0,16,0.00,,,0.00,VWS V14.01,2013-03-25 02:13:00,
2013-03-24 22:14:00,40.8,-1.9,29.50,ESE,105,0.0,0.0,16,0.00,,,0.00,VWS V14.01,2013-03-25 02:14:00,
2013-03-24 22:17:00,40.8,-1.9,29.50,ESE,105,0.0,0.0,16,0.00,,,0.00,VWS V14.01,2013-03-25 02:17:00,
2013-03-24 22:19:00,40.8,-1.9,29.50,ESE,105,0.0,0.0,16,0.00,,,0.00,VWS V14.01,2013-03-25 02:19:00,
2013-03-24 22:20:00,40.8,-1.9,29.50,East,100,0.0,0.0,16,0.00,,,0.00,VWS V14.01,2013-03-25 02:20:00,
2013-03-24 22:21:00,40.8,-1.9,29.50,East,100,0.0,0.0,16,0.00,,,0.00,VWS V14.01,2013-03-25 02:21:00,
2013-03-24 22:22:00,40.8,-1.9,29.50,East,100,0.0,0.0,16,0.00,,,0.00,VWS V14.01,2013-03-25 02:22:00,
2013-03-24 22:26:00,40.8,-1.9,29.50,NNE,23,0.0,0.0,16,0.00,,,0.00,VWS V14.01,2013-03-25 02:26:00,
2013-03-24 22:28:00,40.8,-1.9,29.50,NNE,23,0.0,0.0,16,0.00,,,0.00,VWS V14.01,2013-03-25 02:28:00,
2013-03-24 22:32:00,40.8,-1.9,29.50,NNE,23,0.0,0.0,16,0.00,,,0.00,VWS V14.01,2013-03-25 02:32:00,
2013-03-24 22:33:00,40.6,-2.0,29.50,NNE,23,0.0,0.0,16,0.00,,,0.00,VWS V14.01,2013-03-25 02:33:00,
2013-03-24 22:34:00,40.6,-2.0,29.50,NNE,23,0.0,0.0,16,0.00,,,0.00,VWS V14.01,2013-03-25 02:34:00,
2013-03-24 22:35:00,40.6,-2.0,29.50,NNE,30,0.0,0.0,16,0.00,,,0.00,VWS V14.01,2013-03-25 02:35:00,
2013-03-24 22:38:00,40.6,-2.0,29.50,NNE,33,0.0,0.0,16,0.00,,,0.00,VWS V14.01,2013-03-25 02:38:00,
2013-03-24 22:39:00,40.6,-2.0,29.50,NNE,33,0.0,0.0,16,0.00,,,0.00,VWS V14.01,2013-03-25 02:39:00,
2013-03-24 22:40:00,40.6,-2.0,29.50,East,95,0.0,0.0,16,0.00,,,0.00,VWS V14.01,2013-03-25 02:40:00,
2013-03-24 22:42:00,40.6,-2.0,29.50,ESE,105,2.7,3.6,16,0.00,,,0.00,VWS V14.01,2013-03-25 02:42:00,
2013-03-24 22:45:00,40.6,-2.0,29.50,East,84,0.0,0.0,16,0.00,,,0.00,VWS V14.01,2013-03-25 02:45:00,
2013-03-24 22:46:00,40.8,-1.9,29.50,East,84,0.0,0.0,16,0.00,,,0.00,VWS V14.01,2013-03-25 02:46:00,
2013-03-24 22:47:00,40.8,-1.9,29.50,East,94,2.7,3.1,16,0.00,,,0.00,VWS V14.01,2013-03-25 02:47:00,
2013-03-24 22:52:00,40.8,-1.9,29.47,East,99,2.2,3.6,16,0.00,,,0.00,VWS V14.01,2013-03-25 02:52:00,
2013-03-24 22:53:00,40.8,-1.9,29.47,East,99,0.0,0.0,16,0.00,,,0.00,VWS V14.01,2013-03-25 02:53:00,
2013-03-24 22:58:00,40.8,-1.9,29.47,ESE,102,0.0,0.0,16,0.00,,,0.00,VWS V14.01,2013-03-25 02:58:00,
2013-03-24 22:59:00,40.8,-1.9,29.47,ESE,102,0.0,0.0,16,0.00,,,0.00,VWS V14.01,2013-03-25 02:59:00,
2013-03-24 23:03:00,40.8,-1.9,29.47,ESE,116,2.2,3.1,16,0.00,,,0.00,VWS V14.01,2013-03-25 03:03:00,
2013-03-24 23:04:00,40.8,-1.9,29.47,ESE,110,0.0,0.0,16,0.00,,,0.00,VWS V14.01,2013-03-25 03:04:00,
2013-03-24 23:05:00,40.8,-1.9,29.47,ESE,104,3.1,3.1,16,0.00,,,0.00,VWS V14.01,2013-03-25 03:05:00,
2013-03-24 23:10:00,40.6,-2.0,29.50,ESE,116,4.9,4.9,16,0.00,,,0.00,VWS V14.01,2013-03-25 03:10:00,
2013-03-24 23:11:00,40.6,-2.0,29.50,East,82,2.7,4.9,16,0.00,,,0.00,VWS V14.01,2013-03-25 03:11:00,
2013-03-24 23:13:00,40.6,-2.0,29.50,SSE,159,5.4,5.4,16,0.00,,,0.00,VWS V14.01,2013-03-25 03:13:00,
2013-03-24 23:16:00,40.6,-2.0,29.50,ESE,112,0.0,2.7,16,0.00,,,0.00,VWS V14.01,2013-03-25 03:16:00,
2013-03-24 23:17:00,40.6,-2.0,29.50,ESE,111,4.0,4.0,16,0.00,,,0.00,VWS V14.01,2013-03-25 03:17:00,
2013-03-24 23:18:00,40.6,-2.0,29.50,East,97,2.7,4.0,16,0.00,,,0.00,VWS V14.01,2013-03-25 03:18:00,
2013-03-24 23:21:00,40.5,-2.2,29.50,ESE,122,2.7,3.1,16,0.00,,,0.00,VWS V14.01,2013-03-25 03:21:00,
2013-03-24 23:22:00,40.5,-2.2,29.50,ESE,107,2.2,3.1,16,0.00,,,0.00,VWS V14.01,2013-03-25 03:22:00,
2013-03-24 23:23:00,40.3,-2.3,29.50,SE,140,4.0,4.0,16,0.00,,,0.00,VWS V14.01,2013-03-25 03:23:00,
2013-03-24 23:24:00,40.3,-2.3,29.50,East,99,3.1,4.0,16,0.00,,,0.00,VWS V14.01,2013-03-25 03:24:00,
2013-03-24 23:27:00,39.9,-2.6,29.50,SE,130,4.9,5.8,16,0.00,,,0.00,VWS V14.01,2013-03-25 03:27:00,
2013-03-24 23:28:00,39.9,-2.6,29.50,SE,135,0.0,5.8,16,0.00,,,0.00,VWS V14.01,2013-03-25 03:28:00,
2013-03-24 23:29:00,39.7,-2.8,29.50,SE,138,3.1,3.1,16,0.00,,,0.00,VWS V14.01,2013-03-25 03:29:00,
2013-03-24 23:32:00,39.6,-2.9,29.50,East,93,4.0,4.0,16,0.00,,,0.00,VWS V14.01,2013-03-25 03:32:00,
2013-03-24 23:33:00,39.4,-3.1,29.50,East,100,3.6,3.6,16,0.00,,,0.00,VWS V14.01,2013-03-25 03:33:00,
2013-03-24 23:35:00,39.2,-3.2,29.50,East,93,4.0,4.0,16,0.00,,,0.00,VWS V14.01,2013-03-25 03:35:00,
2013-03-24 23:39:00,39.0,-3.4,29.50,ESE,112,0.0,2.7,16,0.00,,,0.00,VWS V14.01,2013-03-25 03:39:00,
2013-03-24 23:41:00,38.8,-3.5,29.50,East,85,3.6,6.3,16,0.00,,,0.00,VWS V14.01,2013-03-25 03:41:00,
2013-03-24 23:44:00,38.7,-3.7,29.50,SE,130,0.0,0.0,16,0.00,,,0.00,VWS V14.01,2013-03-25 03:44:00,
2013-03-24 23:45:00,38.7,-3.7,29.50,ESE,112,0.0,0.0,16,0.00,,,0.00,VWS V14.01,2013-03-25 03:45:00,
2013-03-24 23:46:00,38.7,-3.7,29.50,ESE,109,3.6,3.6,16,0.00,,,0.00,VWS V14.01,2013-03-25 03:46:00,
2013-03-24 23:49:00,38.5,-0.2,29.50,East,86,0.0,2.7,19,0.00,,,0.00,VWS V14.01,2013-03-25 03:49:00,
2013-03-24 23:51:00,38.5,-0.2,29.50,SSE,157,0.0,5.4,19,0.00,,,0.00,VWS V14.01,2013-03-25 03:51:00,
2013-03-24 23:52:00,38.5,-0.2,29.50,East,101,0.0,4.0,19,0.00,,,0.00,VWS V14.01,2013-03-25 03:52:00,
2013-03-24 23:56:00,38.3,-0.3,29.50,SE,136,2.7,3.6,19,0.00,,,0.00,VWS V14.01,2013-03-25 03:56:00,
2013-03-24 23:57:00,38.3,-0.3,29.50,East,81,0.0,4.5,19,0.00,,,0.00,VWS V14.01,2013-03-25 03:57:00,
2013-03-24 23:58:00,38.1,-0.5,29.50,ENE,75,0.0,0.0,19,0.00,,,0.00,VWS V14.01,2013-03-25 03:58:00,